Time;durP1;ratioP1;P1;durP2;ratioP2;P2;SDS_P1;SDS_P2;PMS_P1;PMS_P2;Temp;Humidity;BMP_temperature;BMP_pressure;BME280_temperature;BME280_humidity;BME280_pressure;Samples;Min_cycle;Max_cycle;Signal;HPM_P1;HPM_P2
2022/04/18 00:01:51;;;;;;;19.53;10.23;;;;;;;;;;5104246;28;20403;-72
2022/04/18 00:04:17;;;;;;;19.43;10.67;;;;;;;;;;5097879;28;20028;-71
2022/04/18 00:06:43;;;;;;;19.33;10.33;;;;;;;;;;5105902;28;20446;-73
2022/04/18 00:09:08;;;;;;;21.50;9.70;;;;;;;;;;5104083;28;20741;-72
2022/04/18 00:11:34;;;;;;;22.60;9.83;;;;;;;;;;5097963;28;20028;-72
2022/04/18 00:14:00;;;;;;;20.03;10.00;;;;;;;;;;5103999;28;20027;-72
2022/04/18 00:16:25;;;;;;;18.17;9.83;;;;;;;;;;5099347;28;20039;-71
2022/04/18 00:18:51;;;;;;;16.67;8.40;;;;;;;;;;5103372;28;20099;-72
2022/04/18 00:21:18;;;;;;;19.00;9.03;;;;;;;;;;5100657;28;20024;-71
2022/04/18 00:23:44;;;;;;;17.37;10.03;;;;;;;;;;5098178;28;20028;-72
2022/04/18 00:26:10;;;;;;;24.00;10.30;;;;;;;;;;5103335;28;20357;-71
2022/04/18 00:28:36;;;;;;;19.00;9.50;;;;;;;;;;5080840;28;20575;-72
2022/04/18 00:31:01;;;;;;;20.27;9.90;;;;;;;;;;5103260;28;20110;-72
2022/04/18 00:33:27;;;;;;;20.30;10.00;;;;;;;;;;5098313;28;20541;-72
2022/04/18 00:35:53;;;;;;;22.77;10.43;;;;;;;;;;5102657;28;20106;-72
2022/04/18 00:38:19;;;;;;;21.00;9.40;;;;;;;;;;5098359;28;20028;-71
2022/04/18 00:40:45;;;;;;;16.57;8.67;;;;;;;;;;5102582;28;20491;-72
2022/04/18 00:43:11;;;;;;;20.20;9.13;;;;;;;;;;5098744;28;20177;-72
2022/04/18 00:45:36;;;;;;;17.83;8.80;;;;;;;;;;5102274;28;20039;-72
2022/04/18 00:48:03;;;;;;;14.53;7.63;;;;;;;;;;5100033;27;20028;-72
2022/04/18 00:50:33;;;;;;;24.37;9.60;;;;;;;;;;5103545;28;20031;-71
2022/04/18 00:52:59;;;;;;;19.27;9.93;;;;;;;;;;5102469;28;20028;-72
2022/04/18 00:55:27;;;;;;;19.30;8.47;;;;;;;;;;5097643;28;20046;-72
2022/04/18 00:57:54;;;;;;;19.50;10.57;;;;;;;;;;5103880;28;20038;-72
2022/04/18 01:00:20;;;;;;;20.20;9.50;;;;;;;;;;5098805;28;20376;-71
2022/04/18 01:02:46;;;;;;;18.50;8.17;;;;;;;;;;5102548;28;20031;-72
2022/04/18 01:05:12;;;;;;;20.20;8.73;;;;;;;;;;5097807;28;20247;-71
2022/04/18 01:07:39;;;;;;;19.10;9.07;;;;;;;;;;5101668;28;20102;-71
2022/04/18 01:10:06;;;;;;;15.47;7.87;;;;;;;;;;5096650;28;20050;-71
2022/04/18 01:12:31;;;;;;;16.10;8.43;;;;;;;;;;5103269;28;20031;-71
2022/04/18 01:14:57;;;;;;;17.87;9.10;;;;;;;;;;5097706;28;20404;-71
2022/04/18 01:17:22;;;;;;;15.83;7.80;;;;;;;;;;5093787;28;20126;-71
2022/04/18 01:19:48;;;;;;;16.70;7.93;;;;;;;;;;5097666;28;20150;-71
2022/04/18 01:22:14;;;;;;;18.43;8.80;;;;;;;;;;5098222;28;20063;-71
2022/04/18 01:30:11;;;;;;;16.17;8.33;;;;;;;;;;5100877;28;20100;-71
2022/04/18 01:32:36;;;;;;;19.57;8.63;;;;;;;;;;5099234;28;20023;-71
2022/04/18 01:35:02;;;;;;;16.33;7.50;;;;;;;;;;5099739;28;20027;-71
2022/04/18 01:37:27;;;;;;;18.37;9.17;;;;;;;;;;5104508;28;20176;-71
2022/04/18 01:39:53;;;;;;;21.73;8.20;;;;;;;;;;5100242;28;20024;-71
2022/04/18 01:42:18;;;;;;;15.77;8.87;;;;;;;;;;5102503;28;20023;-71
2022/04/18 01:44:44;;;;;;;20.10;8.20;;;;;;;;;;5100543;28;20143;-72
2022/04/18 01:47:09;;;;;;;19.07;8.93;;;;;;;;;;5098649;28;20024;-72
2022/04/18 01:49:35;;;;;;;16.63;8.30;;;;;;;;;;5100093;28;20031;-71
2022/04/18 01:52:00;;;;;;;20.87;9.00;;;;;;;;;;5098005;28;20034;-71
2022/04/18 01:54:26;;;;;;;13.83;7.37;;;;;;;;;;5101414;28;20035;-71
2022/04/18 01:56:51;;;;;;;22.03;8.57;;;;;;;;;;5097719;28;20034;-71
2022/04/18 01:59:17;;;;;;;19.70;8.20;;;;;;;;;;5100064;28;20030;-72
2022/04/18 02:01:43;;;;;;;17.53;9.00;;;;;;;;;;5097204;28;20039;-71
2022/04/18 02:04:08;;;;;;;16.53;8.43;;;;;;;;;;5100534;28;20067;-71
2022/04/18 02:06:34;;;;;;;18.27;8.40;;;;;;;;;;5097296;28;20047;-72
2022/04/18 02:09:01;;;;;;;22.20;9.03;;;;;;;;;;5101904;28;20075;-72
2022/04/18 02:11:27;;;;;;;16.50;9.07;;;;;;;;;;5096734;28;20039;-72
2022/04/18 02:13:52;;;;;;;25.27;9.07;;;;;;;;;;5101111;28;20031;-72
2022/04/18 02:16:19;;;;;;;18.17;8.93;;;;;;;;;;5096788;28;20552;-72
2022/04/18 02:18:45;;;;;;;23.80;8.53;;;;;;;;;;5100382;28;20130;-72
2022/04/18 02:21:12;;;;;;;19.97;8.37;;;;;;;;;;5102890;28;20020;-72
2022/04/18 02:23:41;;;;;;;17.87;8.63;;;;;;;;;;5095952;28;20035;-72
2022/04/18 02:26:07;;;;;;;20.30;9.07;;;;;;;;;;5100572;28;20478;-73
2022/04/18 02:28:33;;;;;;;18.63;8.83;;;;;;;;;;5097691;28;20510;-72
2022/04/18 02:30:59;;;;;;;19.87;8.80;;;;;;;;;;5102070;28;20031;-71
2022/04/18 02:33:24;;;;;;;17.50;8.43;;;;;;;;;;5097744;28;20059;-71
2022/04/18 02:35:50;;;;;;;17.77;8.97;;;;;;;;;;5102066;28;20024;-72
2022/04/18 02:38:16;;;;;;;16.83;8.47;;;;;;;;;;5102006;28;20046;-72
2022/04/18 02:40:43;;;;;;;19.23;9.17;;;;;;;;;;5097652;28;20074;-72
2022/04/18 02:43:08;;;;;;;20.60;9.60;;;;;;;;;;5100758;28;20046;-72
2022/04/18 02:45:35;;;;;;;18.77;8.73;;;;;;;;;;5095931;28;20409;-72
2022/04/18 02:48:00;;;;;;;16.87;9.57;;;;;;;;;;5101713;28;20065;-72
2022/04/18 02:50:26;;;;;;;15.07;8.17;;;;;;;;;;5100023;28;20093;-72
2022/04/18 02:52:52;;;;;;;13.73;8.50;;;;;;;;;;5095785;28;20080;-72
2022/04/18 02:55:18;;;;;;;20.67;9.23;;;;;;;;;;5094952;28;20126;-73
2022/04/18 02:57:43;;;;;;;16.20;9.33;;;;;;;;;;5100935;28;20027;-72
2022/04/18 03:00:10;;;;;;;17.70;9.40;;;;;;;;;;5075356;28;20381;-72
2022/04/18 03:02:36;;;;;;;21.23;8.90;;;;;;;;;;5100864;28;20032;-73
2022/04/18 03:05:04;;;;;;;15.67;8.87;;;;;;;;;;5094876;28;20030;-71
2022/04/18 03:07:30;;;;;;;18.57;8.33;;;;;;;;;;5101911;28;20054;-71
2022/04/18 03:09:56;;;;;;;19.07;9.13;;;;;;;;;;5094883;28;20028;-72
2022/04/18 03:12:22;;;;;;;19.90;8.40;;;;;;;;;;5102877;28;20024;-72
2022/04/18 03:14:49;;;;;;;16.03;8.20;;;;;;;;;;5096428;28;20056;-72
2022/04/18 03:17:16;;;;;;;19.30;8.53;;;;;;;;;;5102913;28;20364;-73
2022/04/18 03:19:41;;;;;;;18.77;9.50;;;;;;;;;;5100252;28;20084;-72
2022/04/18 03:22:07;;;;;;;16.10;8.73;;;;;;;;;;5093521;28;20031;-72
2022/04/18 03:24:33;;;;;;;13.77;8.37;;;;;;;;;;5094417;28;20531;-72
2022/04/18 03:27:03;;;;;;;16.30;8.40;;;;;;;;;;5102479;28;20027;-71
2022/04/18 03:29:29;;;;;;;21.70;9.60;;;;;;;;;;5094167;28;20073;-72
2022/04/18 03:31:55;;;;;;;17.13;9.47;;;;;;;;;;5084097;28;20028;-71
2022/04/18 03:34:21;;;;;;;17.17;8.90;;;;;;;;;;5095483;28;20020;-71
2022/04/18 03:42:15;;;;;;;19.97;8.97;;;;;;;;;;5097327;28;20077;-72
2022/04/18 03:44:46;;;;;;;15.83;8.03;;;;;;;;;;5098919;28;20039;-71
2022/04/18 03:47:13;;;;;;;15.88;8.50;;;;;;;;;;5094928;28;20065;-72
2022/04/18 03:49:40;;;;;;;21.27;8.90;;;;;;;;;;5099707;28;20032;-72
2022/04/18 03:52:07;;;;;;;13.40;8.87;;;;;;;;;;5096487;28;20024;-72
2022/04/18 03:54:34;;;;;;;17.90;8.50;;;;;;;;;;5101214;28;20463;-72
2022/04/18 03:57:01;;;;;;;15.03;8.13;;;;;;;;;;5094190;28;20373;-71
2022/04/18 03:59:27;;;;;;;18.60;8.40;;;;;;;;;;5100071;28;20039;-72
2022/04/18 04:01:53;;;;;;;16.33;8.07;;;;;;;;;;5094086;28;20392;-72
2022/04/18 04:04:18;;;;;;;18.07;7.53;;;;;;;;;;5101742;28;20023;-72
2022/04/18 04:06:44;;;;;;;13.93;7.53;;;;;;;;;;5094683;28;20711;-73
2022/04/18 04:09:09;;;;;;;15.57;7.93;;;;;;;;;;5100259;28;20028;-72
2022/04/18 04:11:35;;;;;;;18.97;8.43;;;;;;;;;;5094311;28;20523;-72
2022/04/18 04:14:01;;;;;;;18.20;8.77;;;;;;;;;;5100006;28;20027;-72
2022/04/18 04:16:27;;;;;;;28.53;8.00;;;;;;;;;;5095748;28;20499;-72
2022/04/18 04:18:52;;;;;;;17.33;8.17;;;;;;;;;;5101750;28;20035;-72
2022/04/18 04:21:18;;;;;;;14.17;7.77;;;;;;;;;;5089574;28;20487;-72
2022/04/18 04:23:43;;;;;;;14.23;7.37;;;;;;;;;;5100012;28;20471;-72
2022/04/18 04:26:09;;;;;;;11.77;6.77;;;;;;;;;;5096993;28;20082;-72
2022/04/18 04:28:35;;;;;;;14.83;7.47;;;;;;;;;;5098271;28;20479;-72
2022/04/18 04:31:03;;;;;;;15.93;7.43;;;;;;;;;;5096771;28;20035;-73
2022/04/18 04:33:30;;;;;;;15.53;8.03;;;;;;;;;;5098790;28;20068;-72
2022/04/18 04:35:58;;;;;;;19.63;8.60;;;;;;;;;;5095158;28;20032;-72
2022/04/18 04:38:26;;;;;;;16.47;7.73;;;;;;;;;;5098836;28;20027;-73
2022/04/18 04:40:53;;;;;;;13.23;7.07;;;;;;;;;;5095899;28;20021;-72
2022/04/18 04:43:27;;;;;;;17.23;7.93;;;;;;;;;;5100795;28;20055;-72
2022/04/18 04:45:54;;;;;;;16.43;7.60;;;;;;;;;;5097082;28;20138;-72
2022/04/18 04:48:19;;;;;;;15.83;7.37;;;;;;;;;;5097980;28;20034;-72
2022/04/18 04:50:45;;;;;;;17.80;7.30;;;;;;;;;;5098694;27;20241;-72
2022/04/18 04:53:10;;;;;;;13.57;7.53;;;;;;;;;;5105146;28;20471;-72
2022/04/18 04:55:37;;;;;;;13.80;7.50;;;;;;;;;;5097992;28;20024;-72
2022/04/18 04:58:03;;;;;;;17.80;7.67;;;;;;;;;;5103047;28;20027;-72
2022/04/18 05:00:28;;;;;;;12.97;6.53;;;;;;;;;;5097665;28;20028;-72
2022/04/18 05:02:58;;;;;;;13.70;7.87;;;;;;;;;;5102622;28;20088;-73
2022/04/18 05:05:24;;;;;;;11.30;6.93;;;;;;;;;;5099223;28;20107;-73
2022/04/18 05:07:49;;;;;;;15.17;7.63;;;;;;;;;;5102466;28;20131;-73
2022/04/18 05:10:15;;;;;;;15.20;7.33;;;;;;;;;;5097175;28;20028;-72
2022/04/18 05:12:41;;;;;;;11.53;7.20;;;;;;;;;;5102215;28;20372;-72
2022/04/18 05:15:07;;;;;;;18.40;8.17;;;;;;;;;;5096560;28;20024;-74
2022/04/18 05:17:33;;;;;;;16.43;7.80;;;;;;;;;;5097232;28;20042;-71
2022/04/18 05:19:59;;;;;;;14.00;7.40;;;;;;;;;;5102186;28;20027;-71
2022/04/18 05:22:24;;;;;;;11.90;6.90;;;;;;;;;;5089709;28;20027;-72
2022/04/18 05:24:51;;;;;;;15.13;7.00;;;;;;;;;;5097517;28;20020;-71
2022/04/18 05:27:17;;;;;;;12.53;6.50;;;;;;;;;;5103358;28;20050;-73
2022/04/18 05:29:43;;;;;;;16.57;7.50;;;;;;;;;;5097541;28;20046;-73
2022/04/18 05:32:09;;;;;;;15.30;6.90;;;;;;;;;;5103276;28;20135;-71
2022/04/18 05:34:38;;;;;;;14.00;7.67;;;;;;;;;;5097651;28;20063;-73
2022/04/18 05:37:04;;;;;;;14.20;6.80;;;;;;;;;;5102208;28;20118;-73
2022/04/18 05:39:30;;;;;;;13.23;7.00;;;;;;;;;;5096222;28;20067;-71
2022/04/18 05:41:58;;;;;;;18.47;6.87;;;;;;;;;;5097333;28;20538;-73
2022/04/18 05:44:25;;;;;;;17.57;7.37;;;;;;;;;;5097865;28;20044;-72
2022/04/18 05:46:51;;;;;;;12.57;6.93;;;;;;;;;;5101883;28;20506;-72
2022/04/18 05:49:16;;;;;;;14.43;6.87;;;;;;;;;;5096063;28;20142;-72
2022/04/18 05:51:43;;;;;;;15.30;7.00;;;;;;;;;;5101566;28;20119;-72
2022/04/18 05:54:10;;;;;;;13.23;6.83;;;;;;;;;;5079811;28;20555;-72
2022/04/18 05:56:36;;;;;;;11.93;6.73;;;;;;;;;;5100789;28;20077;-72
2022/04/18 05:59:02;;;;;;;17.23;7.13;;;;;;;;;;5079735;28;20495;-73
2022/04/18 06:01:30;;;;;;;15.90;7.37;;;;;;;;;;5103131;28;20027;-72
2022/04/18 06:03:56;;;;;;;14.17;7.00;;;;;;;;;;5086145;28;20040;-72
2022/04/18 06:06:21;;;;;;;16.70;7.17;;;;;;;;;;5096476;28;20145;-72
2022/04/18 06:08:47;;;;;;;14.23;8.33;;;;;;;;;;5101073;28;20043;-73
2022/04/18 06:11:14;;;;;;;13.17;7.00;;;;;;;;;;5097516;28;20498;-72
2022/04/18 06:13:39;;;;;;;18.07;7.80;;;;;;;;;;5101478;28;20070;-72
2022/04/18 06:16:06;;;;;;;15.30;6.77;;;;;;;;;;5096393;28;20074;-73
2022/04/18 06:18:32;;;;;;;14.97;7.07;;;;;;;;;;5101098;28;20067;-71
2022/04/18 06:20:58;;;;;;;13.20;7.13;;;;;;;;;;5096054;28;20020;-73
2022/04/18 06:23:23;;;;;;;12.37;6.53;;;;;;;;;;5100915;28;20441;-71
2022/04/18 06:25:49;;;;;;;12.50;6.63;;;;;;;;;;5096088;28;20499;-72
2022/04/18 06:28:14;;;;;;;14.40;7.20;;;;;;;;;;5101778;28;20030;-71
2022/04/18 06:30:41;;;;;;;12.73;6.97;;;;;;;;;;5097991;28;20085;-72
2022/04/18 06:33:13;;;;;;;16.97;7.40;;;;;;;;;;5081150;28;20055;-72
2022/04/18 06:35:41;;;;;;;;;;;;;;;;;;5095872;28;20028;-73
2022/04/18 06:38:08;;;;;;;13.33;6.23;;;;;;;;;;5102739;28;19915;-73
2022/04/18 06:40:33;;;;;;;17.53;7.17;;;;;;;;;;5095230;28;20335;-73
2022/04/18 06:42:59;;;;;;;15.03;6.67;;;;;;;;;;5100915;28;20067;-72
2022/04/18 06:45:25;;;;;;;12.20;7.20;;;;;;;;;;5094745;28;20102;-72
2022/04/18 06:47:50;;;;;;;15.27;7.63;;;;;;;;;;5095407;28;20476;-72
2022/04/18 06:50:16;;;;;;;16.17;7.67;;;;;;;;;;5095822;28;20028;-72
2022/04/18 06:52:49;;;;;;;12.97;6.93;;;;;;;;;;5100285;28;20050;-72
2022/04/18 06:55:15;;;;;;;13.20;7.13;;;;;;;;;;5095269;28;20467;-72
2022/04/18 06:57:41;;;;;;;13.73;6.80;;;;;;;;;;5100690;28;20061;-73
2022/04/18 07:00:07;;;;;;;13.93;7.30;;;;;;;;;;5094758;28;20024;-72
2022/04/18 07:02:33;;;;;;;16.30;7.27;;;;;;;;;;5100748;28;20051;-72
2022/04/18 07:04:58;;;;;;;12.30;7.27;;;;;;;;;;5095117;28;20066;-72
2022/04/18 07:07:24;;;;;;;17.67;5.87;;;;;;;;;;5099766;28;20039;-72
2022/04/18 07:09:50;;;;;;;14.50;6.03;;;;;;;;;;5088165;28;20028;-72
2022/04/18 07:12:21;;;;;;;9.53;6.20;;;;;;;;;;5101541;28;20070;-71
2022/04/18 07:14:46;;;;;;;12.73;6.70;;;;;;;;;;5100476;28;20038;-73
2022/04/18 07:17:12;;;;;;;11.93;6.90;;;;;;;;;;5096301;28;20028;-73
2022/04/18 07:19:37;;;;;;;13.43;7.10;;;;;;;;;;5100004;28;20019;-73
2022/04/18 07:22:03;;;;;;;13.07;6.43;;;;;;;;;;5092215;28;20467;-73
2022/04/18 07:24:28;;;;;;;10.93;6.33;;;;;;;;;;5095502;28;20046;-72
2022/04/18 07:26:54;;;;;;;19.77;10.43;;;;;;;;;;5095448;28;20055;-73
2022/04/18 07:29:19;;;;;;;15.37;7.17;;;;;;;;;;5095591;28;20058;-73
2022/04/18 07:31:45;;;;;;;12.00;6.20;;;;;;;;;;5100936;28;20054;-72
2022/04/18 07:34:12;;;;;;;12.93;6.30;;;;;;;;;;5095139;28;20507;-73
2022/04/18 07:36:37;;;;;;;9.00;6.67;;;;;;;;;;5093795;28;20074;-72
2022/04/18 07:39:03;;;;;;;13.33;6.93;;;;;;;;;;5099740;28;20058;-72
2022/04/18 07:41:29;;;;;;;13.40;7.53;;;;;;;;;;5096754;28;20399;-73
2022/04/18 07:43:58;;;;;;;11.40;6.27;;;;;;;;;;5083136;28;20027;-72
2022/04/18 07:46:23;;;;;;;16.20;8.03;;;;;;;;;;5095078;28;20383;-72
2022/04/18 07:48:51;;;;;;;12.33;7.50;;;;;;;;;;5099130;28;20020;-73
2022/04/18 07:51:36;;;;;;;8.33;5.40;;;;;;;;;;5077126;28;20051;-72
2022/04/18 07:54:04;;;;;;;11.97;7.07;;;;;;;;;;5090206;28;20032;-73
2022/04/18 07:56:30;;;;;;;13.10;6.13;;;;;;;;;;5098668;28;20547;-73
2022/04/18 07:58:56;;;;;;;10.27;5.57;;;;;;;;;;5096038;28;20028;-73
2022/04/18 08:01:22;;;;;;;9.35;5.38;;;;;;;;;;5099839;28;20387;-73
2022/04/18 08:03:48;;;;;;;7.73;4.97;;;;;;;;;;5094869;28;20028;-72
2022/04/18 08:06:16;;;;;;;7.68;4.95;;;;;;;;;;5098871;28;20184;-72
2022/04/18 08:08:43;;;;;;;8.50;5.20;;;;;;;;;;5094625;28;20169;-71
2022/04/18 08:11:14;;;;;;;8.48;4.68;;;;;;;;;;5099529;28;20038;-73
2022/04/18 08:13:43;;;;;;;7.22;5.10;;;;;;;;;;5093184;28;20344;-72
2022/04/18 08:16:09;;;;;;;9.63;5.75;;;;;;;;;;5096135;28;20423;-72
2022/04/18 08:18:36;;;;;;;9.27;5.53;;;;;;;;;;5097944;28;20063;-73
2022/04/18 08:21:03;;;;;;;7.28;5.18;;;;;;;;;;5092773;28;20033;-72
2022/04/18 08:23:29;;;;;;;8.32;4.65;;;;;;;;;;5100721;28;20383;-72
2022/04/18 08:25:55;;;;;;;10.70;4.55;;;;;;;;;;5101368;28;20031;-72
2022/04/18 08:28:20;;;;;;;6.85;4.75;;;;;;;;;;5101110;28;20068;-73
2022/04/18 08:30:46;;;;;;;7.70;4.90;;;;;;;;;;5101164;28;20043;-72
2022/04/18 08:33:11;;;;;;;6.72;4.50;;;;;;;;;;5098963;28;20568;-72
2022/04/18 08:35:37;;;;;;;9.25;4.72;;;;;;;;;;5101264;28;20027;-73
2022/04/18 08:38:03;;;;;;;8.95;4.78;;;;;;;;;;5100303;28;20060;-73
2022/04/18 08:40:28;;;;;;;9.57;5.25;;;;;;;;;;5101389;28;20020;-73
2022/04/18 08:42:55;;;;;;;8.00;5.75;;;;;;;;;;5099499;28;20028;-73
2022/04/18 08:45:24;;;;;;;7.80;4.90;;;;;;;;;;5103452;28;20024;-72
2022/04/18 08:53:29;;;;;;;8.43;5.13;;;;;;;;;;5098019;28;20329;-72
2022/04/18 08:55:56;;;;;;;7.22;4.78;;;;;;;;;;5101341;28;20040;-73
2022/04/18 08:58:22;;;;;;;6.68;4.55;;;;;;;;;;5097912;28;20028;-71
2022/04/18 09:00:48;;;;;;;7.50;4.85;;;;;;;;;;5101154;28;20051;-73
2022/04/18 09:03:13;;;;;;;8.10;5.15;;;;;;;;;;5103475;28;20069;-73
2022/04/18 09:05:39;;;;;;;9.38;4.82;;;;;;;;;;5104358;28;20031;-73
2022/04/18 09:08:09;;;;;;;9.50;5.43;;;;;;;;;;5097491;28;20116;-73
2022/04/18 09:10:35;;;;;;;7.97;4.82;;;;;;;;;;5101269;28;20031;-71
2022/04/18 09:13:13;;;;;;;8.32;4.47;;;;;;;;;;5097773;28;20032;-73
2022/04/18 09:15:46;;;;;;;10.75;5.53;;;;;;;;;;5099819;28;20179;-72
2022/04/18 09:18:19;;;;;;;9.13;5.20;;;;;;;;;;5100422;28;20032;-73
2022/04/18 09:20:49;;;;;;;8.10;5.22;;;;;;;;;;5097610;28;20092;-72
2022/04/18 09:23:34;;;;;;;7.80;4.28;;;;;;;;;;5096145;28;20411;-73
2022/04/18 09:26:10;;;;;;;7.60;5.40;;;;;;;;;;5098860;28;20066;-72
2022/04/18 09:28:40;;;;;;;9.50;4.40;;;;;;;;;;5099963;28;20047;-72
2022/04/18 09:31:11;;;;;;;9.13;4.55;;;;;;;;;;5098767;28;20020;-72
2022/04/18 09:33:43;;;;;;;8.17;4.50;;;;;;;;;;5099591;28;20031;-72
2022/04/18 09:36:20;;;;;;;7.72;4.40;;;;;;;;;;5097802;28;20012;-72
2022/04/18 09:38:49;;;;;;;6.32;4.13;;;;;;;;;;5101175;28;20039;-72
2022/04/18 09:41:20;;;;;;;5.40;3.78;;;;;;;;;;5096435;28;20027;-72
2022/04/18 09:43:48;;;;;;;5.32;4.05;;;;;;;;;;5089428;28;20035;-72
2022/04/18 09:46:14;;;;;;;4.93;3.92;;;;;;;;;;5104827;28;20069;-72
2022/04/18 09:48:42;;;;;;;11.43;4.97;;;;;;;;;;5096380;28;20285;-72
2022/04/18 09:51:10;;;;;;;14.38;5.30;;;;;;;;;;5096319;28;20024;-73
2022/04/18 09:53:38;;;;;;;8.38;3.85;;;;;;;;;;5103762;28;20031;-72
2022/04/18 09:56:04;;;;;;;6.00;3.95;;;;;;;;;;5102260;28;20024;-72
2022/04/18 09:58:32;;;;;;;6.13;3.30;;;;;;;;;;5101734;28;20071;-71
2022/04/18 10:01:02;;;;;;;4.13;3.17;;;;;;;;;;5095655;28;20036;-72
2022/04/18 10:03:28;;;;;;;6.68;4.50;;;;;;;;;;5101190;28;20123;-72
2022/04/18 10:05:55;;;;;;;6.43;3.88;;;;;;;;;;5095846;28;20339;-72
2022/04/18 10:08:21;;;;;;;4.22;3.60;;;;;;;;;;5100579;28;20055;-72
2022/04/18 10:10:47;;;;;;;5.53;3.30;;;;;;;;;;5095761;28;20040;-72
2022/04/18 10:13:13;;;;;;;4.10;2.85;;;;;;;;;;5101316;28;20023;-73
2022/04/18 10:15:39;;;;;;;6.40;3.08;;;;;;;;;;5095056;28;20024;-73
2022/04/18 10:18:09;;;;;;;7.43;2.50;;;;;;;;;;5095577;28;20054;-72
2022/04/18 10:20:52;;;;;;;3.80;2.22;;;;;;;;;;5092254;28;20021;-73
2022/04/18 10:23:49;;;;;;;3.65;2.97;;;;;;;;;;5097747;28;20501;-73
2022/04/18 10:26:34;;;;;;;8.30;2.92;;;;;;;;;;5089264;28;20479;-73
2022/04/18 10:29:12;;;;;;;4.25;2.13;;;;;;;;;;5099586;28;20042;-72
2022/04/18 10:31:40;;;;;;;4.15;2.88;;;;;;;;;;5099251;28;20570;-72
2022/04/18 10:34:08;;;;;;;3.70;2.45;;;;;;;;;;5096541;28;20024;-71
2022/04/18 10:36:34;;;;;;;6.53;2.40;;;;;;;;;;5099728;28;20386;-72
2022/04/18 10:39:06;;;;;;;3.60;2.25;;;;;;;;;;5094014;28;20551;-72
2022/04/18 10:41:42;;;;;;;4.25;2.47;;;;;;;;;;5097033;28;20071;-72
2022/04/18 10:44:10;;;;;;;4.97;1.92;;;;;;;;;;5088442;28;20479;-73
2022/04/18 10:47:05;;;;;;;2.13;1.88;;;;;;;;;;5100561;28;20063;-72
2022/04/18 10:49:32;;;;;;;3.83;2.22;;;;;;;;;;5096960;28;20040;-73
2022/04/18 10:52:08;;;;;;;5.18;2.50;;;;;;;;;;5097525;28;20420;-72
2022/04/18 10:54:36;;;;;;;3.90;2.78;;;;;;;;;;5100004;28;20031;-72
2022/04/18 10:57:11;;;;;;;2.80;2.33;;;;;;;;;;5094966;28;20027;-72
2022/04/18 10:59:42;;;;;;;3.95;2.67;;;;;;;;;;5094306;28;20522;-72
2022/04/18 11:02:28;;;;;;;4.63;2.28;;;;;;;;;;5095120;28;20392;-72
2022/04/18 11:04:54;;;;;;;3.38;2.20;;;;;;;;;;5096509;28;20031;-73
2022/04/18 11:07:20;;;;;;;3.25;2.38;;;;;;;;;;5099526;28;20098;-72
2022/04/18 11:09:48;;;;;;;4.13;2.30;;;;;;;;;;5098376;28;20048;-72
2022/04/18 11:12:20;;;;;;;5.80;3.10;;;;;;;;;;5081112;28;20044;-73
2022/04/18 11:15:04;;;;;;;5.85;3.33;;;;;;;;;;5093367;28;20034;-73
2022/04/18 11:17:47;;;;;;;3.17;2.50;;;;;;;;;;5087743;28;20038;-70
2022/04/18 11:20:33;;;;;;;3.17;2.42;;;;;;;;;;5104481;28;20391;-71
2022/04/18 11:23:21;;;;;;;6.68;3.40;;;;;;;;;;5098769;28;20032;-72
2022/04/18 11:25:52;;;;;;;3.47;2.60;;;;;;;;;;5089662;28;20032;-72
2022/04/18 11:28:17;;;;;;;2.88;2.58;;;;;;;;;;5100459;28;20027;-72
2022/04/18 11:30:43;;;;;;;4.22;2.45;;;;;;;;;;5098710;28;20027;-73
2022/04/18 11:33:08;;;;;;;2.92;2.63;;;;;;;;;;5093954;28;20031;-73
2022/04/18 11:35:35;;;;;;;5.38;2.88;;;;;;;;;;5095095;28;20026;-73
2022/04/18 11:38:09;;;;;;;7.60;2.83;;;;;;;;;;5099028;28;20024;-73
2022/04/18 11:40:39;;;;;;;5.63;2.30;;;;;;;;;;5100749;28;20052;-73
2022/04/18 11:43:15;;;;;;;4.38;2.03;;;;;;;;;;5096389;28;20028;-73
2022/04/18 11:45:41;;;;;;;5.72;2.55;;;;;;;;;;5095687;28;20387;-73
2022/04/18 11:48:11;;;;;;;4.82;3.03;;;;;;;;;;5097742;28;20052;-73
2022/04/18 11:50:41;;;;;;;3.03;2.00;;;;;;;;;;5097237;28;20557;-73
2022/04/18 11:53:08;;;;;;;6.20;2.45;;;;;;;;;;5098891;28;20062;-74
2022/04/18 11:55:49;;;;;;;4.32;2.80;;;;;;;;;;5099383;28;20379;-73
2022/04/18 11:58:20;;;;;;;4.40;2.15;;;;;;;;;;5091459;28;20123;-73
2022/04/18 12:09:11;;;;;;;5.43;3.30;;;;;;;;;;5095905;28;20447;-73
2022/04/18 12:11:38;;;;;;;5.22;2.50;;;;;;;;;;5097119;28;20027;-73
2022/04/18 12:14:04;;;;;;;3.45;2.40;;;;;;;;;;5100644;28;20460;-73
2022/04/18 12:16:33;;;;;;;6.57;3.15;;;;;;;;;;5101477;28;20467;-73
2022/04/18 12:18:59;;;;;;;5.13;2.42;;;;;;;;;;5099410;28;20451;-73
2022/04/18 12:21:25;;;;;;;8.82;2.88;;;;;;;;;;5090666;28;20050;-73
2022/04/18 12:23:59;;;;;;;3.92;2.13;;;;;;;;;;5097155;28;20027;-73
2022/04/18 12:26:30;;;;;;;4.72;2.50;;;;;;;;;;5097284;28;20085;-73
2022/04/18 12:29:00;;;;;;;3.75;2.58;;;;;;;;;;5095264;28;20053;-72
2022/04/18 12:31:26;;;;;;;4.63;2.37;;;;;;;;;;5099165;28;20681;-73
2022/04/18 12:33:52;;;;;;;3.47;2.20;;;;;;;;;;5103047;28;20031;-73
2022/04/18 12:36:35;;;;;;;3.90;2.22;;;;;;;;;;5099094;28;20386;-73
2022/04/18 12:39:02;;;;;;;4.03;3.13;;;;;;;;;;5099448;28;20063;-73
2022/04/18 12:41:32;;;;;;;7.03;2.92;;;;;;;;;;5098180;28;20024;-73
2022/04/18 12:43:58;;;;;;;3.80;2.25;;;;;;;;;;5103047;28;20037;-73
2022/04/18 12:46:28;;;;;;;4.18;3.15;;;;;;;;;;5097971;28;20120;-72
2022/04/18 12:48:54;;;;;;;3.92;2.85;;;;;;;;;;5102589;28;20023;-72
2022/04/18 12:51:33;;;;;;;4.35;2.88;;;;;;;;;;5096931;28;20361;-72
2022/04/18 12:53:59;;;;;;;6.25;3.15;;;;;;;;;;5104822;28;20023;-72
2022/04/18 12:56:26;;;;;;;4.90;3.35;;;;;;;;;;5100629;28;20038;-72
2022/04/18 12:58:52;;;;;;;4.82;2.47;;;;;;;;;;5101251;28;20075;-72
2022/04/18 13:01:32;;;;;;;6.78;3.90;;;;;;;;;;5099880;28;20426;-73
2022/04/18 13:03:58;;;;;;;4.05;2.42;;;;;;;;;;5097887;28;20059;-72
2022/04/18 13:06:26;;;;;;;6.80;3.22;;;;;;;;;;5100406;28;20023;-72
2022/04/18 13:09:03;;;;;;;4.10;2.50;;;;;;;;;;5097062;28;20056;-72
2022/04/18 13:12:03;;;;;;;3.45;2.17;;;;;;;;;;5090059;28;20601;-72
2022/04/18 13:14:30;;;;;;;2.83;2.30;;;;;;;;;;5074797;28;20154;-72
2022/04/18 13:17:07;;;;;;;3.78;2.25;;;;;;;;;;5096044;28;20040;-73
2022/04/18 13:19:35;;;;;;;2.60;2.25;;;;;;;;;;5102352;28;20069;-73
2022/04/18 13:22:01;;;;;;;5.03;2.78;;;;;;;;;;5095205;28;20023;-73
2022/04/18 13:24:28;;;;;;;4.35;2.63;;;;;;;;;;5104414;28;20106;-73
2022/04/18 13:26:53;;;;;;;7.18;2.70;;;;;;;;;;5097643;28;20043;-73
2022/04/18 13:29:19;;;;;;;4.50;2.20;;;;;;;;;;5102780;28;20032;-73
2022/04/18 13:31:45;;;;;;;3.60;2.30;;;;;;;;;;5103477;28;20425;-74
2022/04/18 13:34:11;;;;;;;5.07;2.88;;;;;;;;;;5097347;28;20565;-74
2022/04/18 13:36:37;;;;;;;5.40;2.72;;;;;;;;;;5097192;28;20044;-74
2022/04/18 13:39:16;;;;;;;6.45;2.90;;;;;;;;;;5096786;28;20042;-72
2022/04/18 13:41:43;;;;;;;6.88;2.97;;;;;;;;;;5076736;28;20664;-72
2022/04/18 13:44:10;;;;;;;2.85;2.30;;;;;;;;;;5103508;28;20023;-73
2022/04/18 13:46:38;;;;;;;2.50;2.03;;;;;;;;;;5101757;28;20035;-72
2022/04/18 13:49:04;;;;;;;2.58;2.38;;;;;;;;;;5079607;28;20035;-73
2022/04/18 13:51:31;;;;;;;3.30;2.50;;;;;;;;;;5096438;28;20374;-71
2022/04/18 13:53:58;;;;;;;2.20;2.00;;;;;;;;;;5097067;28;20039;-75
2022/04/18 13:56:30;;;;;;;5.05;2.28;;;;;;;;;;5102456;28;20021;-73
2022/04/18 13:58:55;;;;;;;2.90;2.08;;;;;;;;;;5098175;28;20028;-73
2022/04/18 14:01:22;;;;;;;4.47;2.42;;;;;;;;;;5099899;28;20018;-73
2022/04/18 14:03:50;;;;;;;5.20;2.17;;;;;;;;;;5091162;28;20035;-74
2022/04/18 14:06:17;;;;;;;2.13;1.80;;;;;;;;;;5099834;28;20431;-73
2022/04/18 14:08:42;;;;;;;6.57;2.97;;;;;;;;;;5098307;28;20590;-73
2022/04/18 14:11:10;;;;;;;14.75;7.28;;;;;;;;;;5099000;28;20028;-73
2022/04/18 14:13:38;;;;;;;4.30;2.38;;;;;;;;;;5098669;28;20076;-73
2022/04/18 14:21:34;;;;;;;3.05;1.83;;;;;;;;;;5093643;28;20102;-75
2022/04/18 14:24:00;;;;;;;4.00;1.92;;;;;;;;;;5099838;28;20118;-73
2022/04/18 14:26:25;;;;;;;3.25;2.33;;;;;;;;;;5096738;28;20024;-73
2022/04/18 14:28:51;;;;;;;3.83;2.17;;;;;;;;;;5100022;28;20119;-73
2022/04/18 14:31:18;;;;;;;3.35;2.08;;;;;;;;;;5096534;28;20036;-73
2022/04/18 14:33:43;;;;;;;5.18;1.90;;;;;;;;;;5084281;28;20081;-74
2022/04/18 14:36:10;;;;;;;6.85;2.03;;;;;;;;;;5095419;28;20028;-72
2022/04/18 14:38:36;;;;;;;2.47;1.67;;;;;;;;;;5102796;27;20057;-73
2022/04/18 14:41:02;;;;;;;3.03;1.65;;;;;;;;;;5100484;28;20032;-73
2022/04/18 14:43:29;;;;;;;3.03;1.83;;;;;;;;;;5095335;28;20042;-73
2022/04/18 14:45:54;;;;;;;6.82;2.17;;;;;;;;;;5095654;28;20055;-73
2022/04/18 14:48:21;;;;;;;7.50;2.22;;;;;;;;;;5100901;28;20061;-74
2022/04/18 14:50:47;;;;;;;4.82;1.75;;;;;;;;;;5079587;28;20056;-74
2022/04/18 14:53:14;;;;;;;2.65;1.90;;;;;;;;;;5098011;28;20068;-73
2022/04/18 14:55:40;;;;;;;6.45;2.05;;;;;;;;;;5102581;28;20038;-73
2022/04/18 14:58:07;;;;;;;4.90;2.97;;;;;;;;;;5095092;28;20032;-74
2022/04/18 15:00:34;;;;;;;4.72;3.08;;;;;;;;;;5101308;28;20027;-74
2022/04/18 15:03:04;;;;;;;4.47;2.15;;;;;;;;;;5084644;28;20035;-73
2022/04/18 15:05:29;;;;;;;3.90;1.90;;;;;;;;;;5101559;28;20138;-73
2022/04/18 15:07:57;;;;;;;2.22;1.70;;;;;;;;;;5095666;28;20131;-73
2022/04/18 15:10:22;;;;;;;2.47;2.10;;;;;;;;;;5095646;28;20035;-73